Time;durP1;ratioP1;P1;durP2;ratioP2;P2;SDS_P1;SDS_P2;PMS_P1;PMS_P2;Temp;Humidity;BMP_temperature;BMP_pressure;BME280_temperature;BME280_humidity;BME280_pressure;Samples;Min_cycle;Max_cycle;Signal;HPM_P1;HPM_P2
2024/01/11 00:01:48;;;;;;;23.33;15.07;;;11.20;81.80;;;;;;5091308;28;20111;-44
2024/01/11 00:04:14;;;;;;;22.63;13.90;;;11.30;81.40;;;;;;5091394;28;20402;-44
2024/01/11 00:06:42;;;;;;;19.85;13.00;;;11.10;81.30;;;;;;5091336;28;20035;-42
2024/01/11 00:09:07;;;;;;;21.92;14.27;;;11.00;81.40;;;;;;5091218;28;20024;-44
2024/01/11 00:11:33;;;;;;;20.58;13.55;;;11.00;81.50;;;;;;5091692;28;20088;-43
2024/01/11 00:13:58;;;;;;;19.63;14.00;;;10.90;82.40;;;;;;5090960;28;20388;-44
2024/01/11 00:16:24;;;;;;;22.67;14.38;;;10.70;82.90;;;;;;5091564;28;20036;-44
2024/01/11 00:18:50;;;;;;;23.13;14.75;;;10.80;83.70;;;;;;5091119;28;20059;-44
2024/01/11 00:21:15;;;;;;;23.42;15.07;;;11.10;83.20;;;;;;5091197;28;20024;-44
2024/01/11 00:23:41;;;;;;;21.35;14.35;;;11.30;81.60;;;;;;5091178;28;20080;-44
2024/01/11 00:26:06;;;;;;;22.48;14.20;;;11.30;80.90;;;;;;5091078;28;20028;-44
2024/01/11 00:28:32;;;;;;;22.55;13.98;;;11.20;80.70;;;;;;5091135;28;20024;-44
2024/01/11 00:30:57;;;;;;;21.75;14.07;;;11.10;80.80;;;;;;5091036;28;20085;-44
2024/01/11 00:33:23;;;;;;;19.05;13.02;;;11.10;81.00;;;;;;5091596;28;20128;-44
2024/01/11 00:35:49;;;;;;;24.15;14.90;;;10.90;81.10;;;;;;5094945;28;20035;-43
2024/01/11 00:38:14;;;;;;;22.42;13.70;;;10.90;82.20;;;;;;5094783;28;20024;-40
2024/01/11 00:40:40;;;;;;;23.13;14.20;;;10.90;83.10;;;;;;5094969;28;20429;-44
2024/01/11 00:43:05;;;;;;;23.27;14.05;;;11.10;83.10;;;;;;5094648;28;20028;-44
2024/01/11 00:45:31;;;;;;;22.70;14.57;;;11.40;81.60;;;;;;5094813;28;20051;-44
2024/01/11 00:47:57;;;;;;;22.92;14.25;;;11.40;80.70;;;;;;5094585;28;20389;-44
2024/01/11 00:50:22;;;;;;;19.58;13.05;;;11.30;80.40;;;;;;5094774;28;20054;-44
2024/01/11 00:52:48;;;;;;;21.08;13.13;;;11.20;80.50;;;;;;5094609;28;20035;-44
2024/01/11 00:55:14;;;;;;;19.83;13.25;;;11.10;80.60;;;;;;5094596;28;20474;-43
2024/01/11 00:57:39;;;;;;;19.55;12.30;;;11.10;80.80;;;;;;5094255;28;20027;-44
2024/01/11 01:00:05;;;;;;;22.70;14.15;;;10.90;81.00;;;;;;5094515;28;20036;-42
2024/01/11 01:02:31;;;;;;;19.98;12.73;;;10.90;82.50;;;;;;5094850;28;20020;-44
2024/01/11 01:04:57;;;;;;;22.25;13.57;;;11.10;82.80;;;;;;5095196;28;20028;-44
2024/01/11 01:07:22;;;;;;;21.27;13.63;;;11.30;81.50;;;;;;5094466;28;20393;-44
2024/01/11 01:09:48;;;;;;;21.65;13.73;;;11.40;80.50;;;;;;5094329;28;20105;-44
2024/01/11 01:12:13;;;;;;;19.40;12.75;;;11.40;80.10;;;;;;5094104;28;20505;-43
2024/01/11 01:14:39;;;;;;;23.98;13.52;;;11.30;80.20;;;;;;5094456;28;20020;-44
2024/01/11 01:17:05;;;;;;;20.60;12.80;;;11.20;80.20;;;;;;5094122;28;20020;-43
2024/01/11 01:19:30;;;;;;;17.75;12.02;;;11.10;80.40;;;;;;5094101;28;20030;-44
2024/01/11 01:21:56;;;;;;;20.60;13.77;;;11.00;80.60;;;;;;5094030;28;20027;-44
2024/01/11 01:24:22;;;;;;;21.63;14.65;;;10.90;82.00;;;;;;5094204;28;20032;-42
2024/01/11 01:26:47;;;;;;;21.77;13.57;;;11.00;82.50;;;;;;5093845;28;20031;-44
2024/01/11 01:29:13;;;;;;;23.30;13.85;;;11.40;81.60;;;;;;5093868;28;20470;-44
2024/01/11 01:31:39;;;;;;;21.10;13.85;;;11.50;80.30;;;;;;5093966;28;20089;-44
2024/01/11 01:34:07;;;;;;;21.65;13.52;;;11.40;79.90;;;;;;5094514;28;20028;-43
2024/01/11 01:36:32;;;;;;;20.45;12.65;;;11.30;79.90;;;;;;5094195;28;20473;-44
2024/01/11 01:38:58;;;;;;;22.10;12.95;;;11.30;80.00;;;;;;5093700;28;20059;-44
2024/01/11 01:41:23;;;;;;;18.63;12.10;;;11.20;80.20;;;;;;5093643;28;20035;-44
2024/01/11 01:43:49;;;;;;;19.45;13.02;;;11.00;80.30;;;;;;5093694;28;20024;-44
2024/01/11 01:46:22;;;;;;;20.58;12.73;;;10.90;81.60;;;;;;5092702;28;20386;-44
2024/01/11 01:48:48;;;;;;;21.75;13.48;;;11.00;82.20;;;;;;5094299;28;20016;-44
2024/01/11 01:51:14;;;;;;;21.23;14.27;;;11.40;81.70;;;;;;5094566;28;20365;-44
2024/01/11 01:53:40;;;;;;;22.77;14.13;;;11.50;80.20;;;;;;5093642;28;20522;-44
2024/01/11 01:56:07;;;;;;;19.83;13.18;;;11.50;79.70;;;;;;5093348;28;20063;-44
2024/01/11 01:58:33;;;;;;;22.02;13.10;;;11.40;79.60;;;;;;5093233;28;20069;-44
2024/01/11 02:00:59;;;;;;;20.35;12.65;;;11.30;79.70;;;;;;5093378;28;20085;-44
2024/01/11 02:03:28;;;;;;;20.13;12.70;;;11.20;79.80;;;;;;5093293;28;20471;-43
2024/01/11 02:05:54;;;;;;;21.85;13.48;;;11.10;80.10;;;;;;5093726;28;20031;-44
2024/01/11 02:08:23;;;;;;;18.98;13.38;;;11.00;81.10;;;;;;5093121;28;20482;-44
2024/01/11 02:10:49;;;;;;;22.67;13.98;;;11.00;81.80;;;;;;5093238;28;20035;-44
2024/01/11 02:13:15;;;;;;;22.02;13.40;;;11.30;81.80;;;;;;5093105;28;20024;-40
2024/01/11 02:15:41;;;;;;;18.17;12.80;;;11.50;80.20;;;;;;5093346;28;20024;-42
2024/01/11 02:18:07;;;;;;;18.63;13.13;;;11.50;79.50;;;;;;5092825;28;20028;-44
2024/01/11 02:20:32;;;;;;;18.60;12.25;;;11.40;79.40;;;;;;5092993;28;20024;-44
2024/01/11 02:23:08;;;;;;;18.05;12.45;;;11.30;79.40;;;;;;5093236;28;20056;-44
2024/01/11 02:25:33;;;;;;;17.48;11.48;;;11.30;79.70;;;;;;5092969;28;20028;-44
2024/01/11 02:27:59;;;;;;;20.10;12.82;;;11.10;79.80;;;;;;5091488;28;20397;-43
2024/01/11 02:30:25;;;;;;;21.45;13.88;;;11.10;80.70;;;;;;5092887;28;20285;-44
2024/01/11 02:32:51;;;;;;;21.33;13.70;;;11.00;81.60;;;;;;5092708;28;20084;-44
2024/01/11 02:35:18;;;;;;;22.73;13.95;;;11.30;81.70;;;;;;5092721;28;20031;-41
2024/01/11 02:37:44;;;;;;;25.02;13.65;;;11.50;80.00;;;;;;5092421;28;20032;-44
2024/01/11 02:40:12;;;;;;;22.90;13.48;;;11.50;79.20;;;;;;5092732;28;20042;-43
2024/01/11 02:42:38;;;;;;;20.42;13.10;;;11.50;79.10;;;;;;5092578;28;20260;-44
2024/01/11 02:45:04;;;;;;;22.48;13.45;;;11.40;79.20;;;;;;5092596;28;20028;-45
2024/01/11 02:47:30;;;;;;;20.20;12.85;;;11.30;79.30;;;;;;5092451;28;20028;-45
2024/01/11 02:49:56;;;;;;;18.63;12.20;;;11.20;80.20;;;;;;5092707;28;20032;-44
2024/01/11 02:52:23;;;;;;;20.63;12.77;;;11.10;79.80;;;;;;5092214;28;20034;-44
2024/01/11 02:54:49;;;;;;;22.05;13.25;;;11.00;81.20;;;;;;5092346;28;20044;-42
2024/01/11 02:57:14;;;;;;;19.33;13.23;;;11.20;81.60;;;;;;5091865;28;20039;-44
2024/01/11 02:59:40;;;;;;;19.60;12.48;;;11.50;80.20;;;;;;5092214;28;20023;-44
2024/01/11 03:02:06;;;;;;;19.27;12.70;;;11.60;79.20;;;;;;5092744;28;20422;-44
2024/01/11 03:04:31;;;;;;;22.15;12.98;;;11.50;79.00;;;;;;5092135;28;20474;-44
2024/01/11 03:06:57;;;;;;;22.23;12.90;;;11.40;79.00;;;;;;5092328;28;20043;-44
2024/01/11 03:09:23;;;;;;;17.95;11.55;;;11.30;79.10;;;;;;5092247;28;20028;-44
2024/01/11 03:11:48;;;;;;;18.08;12.02;;;11.20;79.30;;;;;;5092141;28;20115;-43
2024/01/11 03:14:14;;;;;;;19.58;12.98;;;11.10;79.50;;;;;;5092560;28;20024;-44
2024/01/11 03:16:40;;;;;;;20.08;13.25;;;11.00;80.80;;;;;;5092522;28;20103;-43
2024/01/11 03:19:06;;;;;;;22.45;13.45;;;11.10;81.30;;;;;;5092405;28;20020;-42
2024/01/11 03:21:31;;;;;;;21.38;12.75;;;11.50;80.50;;;;;;5091874;28;20031;-41
2024/01/11 03:23:57;;;;;;;20.60;13.38;;;11.60;79.20;;;;;;5091827;28;20028;-44
2024/01/11 03:26:23;;;;;;;18.58;12.65;;;11.50;78.80;;;;;;5091735;28;20436;-42
2024/01/11 03:28:49;;;;;;;19.35;13.20;;;11.40;78.90;;;;;;5091647;28;20028;-44
2024/01/11 03:31:14;;;;;;;19.92;12.80;;;11.40;79.00;;;;;;5091779;28;20024;-44
2024/01/11 03:33:40;;;;;;;20.27;12.60;;;11.20;79.10;;;;;;5091655;28;20077;-44
2024/01/11 03:36:10;;;;;;;22.67;13.05;;;11.20;79.30;;;;;;5091561;28;20107;-44
2024/01/11 03:38:36;;;;;;;20.27;13.43;;;11.00;80.40;;;;;;5092620;28;20032;-42
2024/01/11 03:41:02;;;;;;;19.88;13.18;;;11.10;81.10;;;;;;5091720;28;20023;-44
2024/01/11 03:43:28;;;;;;;20.63;13.90;;;11.40;80.70;;;;;;5091517;28;20031;-44
2024/01/11 03:45:53;;;;;;;18.10;13.02;;;11.60;79.30;;;;;;5091481;28;20444;-44
2024/01/11 03:48:19;;;;;;;19.73;12.38;;;11.50;78.70;;;;;;5091565;28;20030;-41
2024/01/11 03:50:45;;;;;;;19.20;12.27;;;11.50;78.60;;;;;;5091982;28;20224;-42
2024/01/11 03:53:10;;;;;;;17.33;12.30;;;11.40;78.70;;;;;;5091665;28;20497;-44
2024/01/11 03:55:39;;;;;;;18.02;12.45;;;11.30;78.90;;;;;;5091554;28;20056;-42
2024/01/11 03:58:04;;;;;;;20.08;12.50;;;11.20;79.10;;;;;;5090097;28;20081;-44
2024/01/11 04:00:30;;;;;;;19.92;13.00;;;11.10;80.00;;;;;;5091826;28;20024;-44
2024/01/11 04:02:55;;;;;;;19.33;13.05;;;11.10;80.90;;;;;;5091268;28;20028;-42
2024/01/11 04:05:21;;;;;;;21.92;13.55;;;11.30;80.80;;;;;;5091551;28;20035;-44
2024/01/11 04:07:46;;;;;;;19.85;13.70;;;11.60;79.30;;;;;;5091505;28;20028;-44
2024/01/11 04:10:12;;;;;;;20.02;13.57;;;11.60;78.60;;;;;;5094371;28;20099;-44
2024/01/11 04:12:38;;;;;;;18.92;13.07;;;11.50;78.40;;;;;;5094483;28;20032;-44
2024/01/11 04:15:04;;;;;;;18.42;12.25;;;11.40;78.60;;;;;;5095512;28;20027;-44
2024/01/11 04:17:29;;;;;;;19.48;12.05;;;11.30;78.70;;;;;;5093859;28;20024;-44
2024/01/11 04:19:55;;;;;;;18.75;12.80;;;11.20;78.90;;;;;;5095667;28;20111;-44
2024/01/11 04:22:20;;;;;;;20.00;13.45;;;11.10;79.60;;;;;;5095461;28;20512;-44
2024/01/11 04:24:46;;;;;;;18.35;12.75;;;11.00;80.60;;;;;;5095079;28;20027;-44
2024/01/11 04:27:12;;;;;;;19.65;13.20;;;11.30;80.70;;;;;;5095750;28;20115;-44
2024/01/11 04:29:39;;;;;;;21.52;13.23;;;11.60;79.20;;;;;;5095310;28;20024;-42
2024/01/11 04:32:05;;;;;;;19.92;13.18;;;11.60;78.40;;;;;;5094562;28;20462;-43
2024/01/11 04:34:31;;;;;;;20.63;13.20;;;11.50;78.20;;;;;;5095086;28;20115;-44
2024/01/11 04:36:56;;;;;;;18.27;12.10;;;11.40;78.30;;;;;;5095023;28;20104;-42
2024/01/11 04:39:22;;;;;;;21.25;12.35;;;11.30;79.20;;;;;;5095050;28;20539;-42
2024/01/11 04:41:48;;;;;;;20.65;13.07;;;11.20;78.70;;;;;;5094968;28;20473;-44
2024/01/11 04:44:13;;;;;;;21.73;13.52;;;11.10;79.10;;;;;;5095234;28;20016;-44
2024/01/11 04:46:39;;;;;;;21.85;13.40;;;11.00;80.40;;;;;;5095009;28;20070;-45
2024/01/11 04:49:04;;;;;;;21.35;13.50;;;11.20;80.60;;;;;;5094681;28;20482;-44
2024/01/11 04:51:30;;;;;;;20.75;13.48;;;11.50;79.30;;;;;;5093540;28;20123;-45
2024/01/11 04:53:56;;;;;;;20.40;13.23;;;11.60;79.20;;;;;;5093280;28;20016;-44
2024/01/11 04:56:21;;;;;;;19.92;12.95;;;11.50;78.20;;;;;;5094576;28;20016;-43
2024/01/11 04:58:48;;;;;;;17.77;12.10;;;11.40;78.20;;;;;;5094903;28;20027;-42
2024/01/11 05:01:17;;;;;;;19.67;12.77;;;11.30;79.10;;;;;;5094801;28;20024;-44
2024/01/11 05:03:44;;;;;;;21.10;12.43;;;11.20;78.50;;;;;;5094494;28;20297;-44
2024/01/11 05:06:20;;;;;;;21.70;13.45;;;11.10;78.70;;;;;;5094771;28;20043;-44
2024/01/11 05:08:47;;;;;;;20.95;13.68;;;11.00;80.20;;;;;;5094645;28;20028;-42
2024/01/11 05:11:17;;;;;;;20.00;13.52;;;11.20;80.50;;;;;;5094761;28;20024;-41
2024/01/11 05:13:43;;;;;;;20.50;13.20;;;11.50;79.10;;;;;;5094223;28;20390;-43
2024/01/11 05:16:35;;;;;;;20.83;13.05;;;11.50;78.10;;;;;;5094269;28;20482;-44
2024/01/11 05:19:01;;;;;;;20.33;12.27;;;11.50;78.00;;;;;;5094461;28;20028;-44
2024/01/11 05:21:27;;;;;;;19.92;12.50;;;11.40;78.00;;;;;;5094102;28;20016;-43
2024/01/11 05:23:52;;;;;;;17.45;11.57;;;11.30;78.20;;;;;;5093913;28;20478;-44
2024/01/11 05:26:19;;;;;;;20.42;13.40;;;11.20;78.40;;;;;;5093970;28;20024;-44
2024/01/11 05:28:45;;;;;;;20.58;14.05;;;11.10;79.00;;;;;;5094903;28;20032;-43
2024/01/11 05:31:16;;;;;;;18.70;13.23;;;11.00;80.00;;;;;;5094448;28;20590;-43
2024/01/11 05:33:42;;;;;;;21.40;14.18;;;11.20;80.20;;;;;;5093965;28;20035;-44
2024/01/11 05:36:08;;;;;;;19.90;14.05;;;11.50;78.70;;;;;;5093935;28;20036;-43
2024/01/11 05:38:35;;;;;;;19.42;13.15;;;11.50;77.90;;;;;;5093721;28;20039;-41
2024/01/11 05:41:01;;;;;;;18.13;12.90;;;11.40;77.80;;;;;;5093822;28;20013;-43
2024/01/11 05:43:27;;;;;;;17.52;12.10;;;11.40;77.90;;;;;;5093936;28;20598;-40
2024/01/11 05:45:53;;;;;;;20.20;13.10;;;11.30;78.10;;;;;;5093795;28;20036;-44
2024/01/11 05:48:18;;;;;;;17.52;12.38;;;11.20;78.30;;;;;;5093386;28;20031;-43
2024/01/11 05:50:44;;;;;;;18.95;12.77;;;11.10;79.00;;;;;;5094882;28;20110;-44
2024/01/11 05:53:12;;;;;;;22.90;13.32;;;11.00;80.00;;;;;;5093928;28;20516;-42
2024/01/11 05:55:38;;;;;;;19.52;13.80;;;11.20;80.10;;;;;;5093673;28;20032;-44
2024/01/11 05:58:04;;;;;;;20.58;13.20;;;11.50;78.60;;;;;;5093328;28;20035;-44
2024/01/11 06:00:29;;;;;;;20.02;13.23;;;11.50;77.80;;;;;;5093639;28;20016;-44
2024/01/11 06:02:55;;;;;;;19.75;12.50;;;11.50;78.00;;;;;;5094253;28;20047;-43
2024/01/11 06:05:21;;;;;;;20.88;13.18;;;11.40;77.70;;;;;;5093284;28;20103;-44
2024/01/11 06:07:47;;;;;;;20.05;13.13;;;11.30;77.90;;;;;;5093657;28;20024;-43
2024/01/11 06:10:14;;;;;;;19.33;12.98;;;11.20;78.10;;;;;;5093664;28;20161;-44
2024/01/11 06:12:40;;;;;;;21.23;13.63;;;11.00;78.80;;;;;;5093202;28;20107;-44
2024/01/11 06:15:07;;;;;;;21.95;14.07;;;11.00;79.80;;;;;;5093090;28;20024;-44
2024/01/11 06:17:33;;;;;;;21.83;13.75;;;11.20;79.90;;;;;;5092899;28;20030;-44
2024/01/11 06:19:58;;;;;;;18.95;13.38;;;11.50;78.50;;;;;;5092967;28;20019;-44
2024/01/11 06:22:24;;;;;;;18.40;13.00;;;11.50;77.60;;;;;;5093810;28;20032;-44
2024/01/11 06:24:50;;;;;;;21.23;13.77;;;11.40;77.50;;;;;;5093183;28;20072;-44
2024/01/11 06:27:15;;;;;;;18.83;12.77;;;11.30;77.60;;;;;;5092864;28;20023;-44
2024/01/11 06:29:41;;;;;;;18.50;12.43;;;11.20;77.70;;;;;;5093668;28;20442;-44
2024/01/11 06:32:08;;;;;;;19.98;13.20;;;11.10;77.90;;;;;;5092250;28;20024;-44
2024/01/11 06:34:36;;;;;;;19.77;13.57;;;11.00;78.90;;;;;;5092812;28;20052;-44
2024/01/11 06:37:02;;;;;;;20.48;13.30;;;11.00;79.70;;;;;;5092570;28;20031;-44
2024/01/11 06:39:29;;;;;;;23.08;13.75;;;11.20;79.70;;;;;;5092802;28;20437;-41
2024/01/11 06:41:55;;;;;;;19.70;13.27;;;11.50;78.20;;;;;;5092549;28;20020;-44
2024/01/11 06:44:21;;;;;;;22.20;13.93;;;11.50;77.60;;;;;;5092879;28;20131;-44
2024/01/11 06:46:46;;;;;;;19.80;13.05;;;11.40;77.30;;;;;;5092547;28;20073;-44
2024/01/11 06:49:12;;;;;;;19.48;12.77;;;11.30;77.50;;;;;;5092388;28;20050;-44
2024/01/11 06:51:39;;;;;;;19.55;12.70;;;11.20;77.50;;;;;;5092358;28;20024;-42
2024/01/11 06:54:04;;;;;;;21.08;14.02;;;11.10;77.80;;;;;;5092484;28;20024;-44
2024/01/11 06:56:30;;;;;;;21.38;13.80;;;11.00;78.70;;;;;;5092278;28;20439;-44
2024/01/11 06:58:57;;;;;;;23.20;14.70;;;11.00;79.60;;;;;;5094304;28;20028;-44
2024/01/11 07:01:23;;;;;;;21.90;13.70;;;11.30;79.70;;;;;;5092242;28;20027;-44
2024/01/11 07:03:49;;;;;;;20.88;13.63;;;11.50;78.10;;;;;;5092089;28;20066;-45
2024/01/11 07:06:15;;;;;;;21.30;13.00;;;11.50;77.40;;;;;;5091941;28;20091;-44
2024/01/11 07:08:41;;;;;;;19.70;13.10;;;11.50;77.20;;;;;;5093236;28;20534;-44
2024/01/11 07:11:07;;;;;;;22.00;13.32;;;11.30;77.40;;;;;;5092111;28;20031;-43
2024/01/11 07:13:33;;;;;;;19.13;13.15;;;11.30;77.50;;;;;;5092010;28;20024;-44
2024/01/11 07:15:59;;;;;;;21.33;13.80;;;11.20;77.60;;;;;;5092004;28;20024;-44
2024/01/11 07:18:25;;;;;;;21.52;12.90;;;11.20;78.40;;;;;;5092047;28;20121;-44
2024/01/11 07:20:56;;;;;;;22.23;13.05;;;11.10;79.20;;;;;;5092028;28;20056;-43
2024/01/11 07:23:22;;;;;;;23.20;14.25;;;11.40;79.20;;;;;;5091974;28;20028;-44
2024/01/11 07:25:47;;;;;;;22.08;13.80;;;11.70;77.70;;;;;;5092060;28;20426;-42
2024/01/11 07:28:13;;;;;;;20.30;13.90;;;11.70;76.90;;;;;;5091858;28;20497;-44
2024/01/11 07:30:39;;;;;;;20.52;12.93;;;11.70;76.70;;;;;;5092699;28;20101;-43
2024/01/11 07:33:05;;;;;;;22.15;13.82;;;11.60;76.80;;;;;;5091715;28;20020;-44
2024/01/11 07:35:31;;;;;;;19.70;12.45;;;11.60;76.80;;;;;;5091588;28;20492;-43
2024/01/11 07:37:58;;;;;;;22.58;13.85;;;11.60;77.00;;;;;;5091466;28;20668;-44
2024/01/11 07:40:23;;;;;;;21.35;14.25;;;11.50;77.50;;;;;;5091684;28;20039;-42
2024/01/11 07:42:49;;;;;;;21.23;13.70;;;11.50;78.20;;;;;;5091440;28;20024;-44
2024/01/11 07:45:15;;;;;;;22.50;14.75;;;11.70;78.30;;;;;;5090772;28;20511;-44
2024/01/11 07:47:41;;;;;;;21.05;14.10;;;12.00;76.80;;;;;;5091499;28;20028;-44
2024/01/11 07:50:09;;;;;;;21.52;13.43;;;12.00;76.20;;;;;;5091220;28;20031;-44
2024/01/11 07:52:36;;;;;;;21.45;14.05;;;11.90;76.00;;;;;;5091644;28;20611;-44
2024/01/11 07:55:07;;;;;;;21.13;13.93;;;11.90;76.00;;;;;;5091650;28;20103;-45
2024/01/11 07:57:37;;;;;;;19.55;13.32;;;11.90;76.00;;;;;;5091320;28;20466;-44
2024/01/11 08:00:04;;;;;;;21.20;14.15;;;11.90;76.90;;;;;;5091250;28;20031;-44
2024/01/11 08:02:30;;;;;;;23.00;14.50;;;11.80;76.60;;;;;;5091206;28;20020;-44
2024/01/11 08:04:55;;;;;;;22.50;14.75;;;11.80;77.30;;;;;;5091189;28;20375;-45
2024/01/11 08:07:21;;;;;;;23.00;14.20;;;12.00;77.20;;;;;;5091608;28;20089;-42
2024/01/11 08:09:47;;;;;;;22.75;14.70;;;12.30;75.80;;;;;;5091879;28;20038;-44
2024/01/11 08:12:16;;;;;;;20.80;13.35;;;12.30;75.10;;;;;;5091218;28;20099;-44
2024/01/11 08:14:41;;;;;;;22.23;14.20;;;12.30;75.10;;;;;;5091244;28;20039;-44
2024/01/11 08:17:08;;;;;;;18.83;13.05;;;12.30;75.20;;;;;;5091610;28;20028;-43
2024/01/11 08:19:34;;;;;;;19.73;12.93;;;12.30;75.30;;;;;;5091131;28;20032;-44
2024/01/11 08:22:00;;;;;;;19.23;13.07;;;12.30;75.30;;;;;;5091179;28;20020;-45
2024/01/11 08:24:25;;;;;;;20.52;14.20;;;12.20;75.40;;;;;;5091026;28;20046;-44
2024/01/11 08:26:52;;;;;;;24.83;16.20;;;12.10;76.50;;;;;;5091185;28;20032;-43
2024/01/11 08:29:19;;;;;;;22.70;15.00;;;12.40;76.80;;;;;;5089696;28;20031;-45
2024/01/11 08:31:45;;;;;;;21.77;14.68;;;12.60;75.50;;;;;;5091044;28;20040;-44
2024/01/11 08:34:11;;;;;;;21.88;14.35;;;12.70;74.80;;;;;;5090932;28;20028;-42
2024/01/11 08:36:38;;;;;;;22.02;14.52;;;12.70;74.80;;;;;;5090976;28;20103;-44
2024/01/11 08:39:08;;;;;;;23.50;14.65;;;12.60;74.80;;;;;;5091054;28;20028;-44
2024/01/11 08:41:37;;;;;;;21.42;13.80;;;12.70;74.90;;;;;;5091498;28;20012;-44
2024/01/11 08:44:05;;;;;;;20.27;13.30;;;12.70;74.90;;;;;;5091603;28;20454;-44
2024/01/11 08:46:33;;;;;;;23.83;15.95;;;12.70;75.00;;;;;;5091428;28;20031;-44
2024/01/11 08:48:59;;;;;;;21.88;15.00;;;12.60;75.70;;;;;;5089090;28;20521;-43
2024/01/11 08:51:25;;;;;;;22.50;15.02;;;12.60;75.50;;;;;;5090950;28;20028;-44
2024/01/11 08:53:52;;;;;;;22.75;14.57;;;12.60;75.40;;;;;;5091634;28;20020;-44
2024/01/11 08:56:18;;;;;;;21.98;14.23;;;12.60;75.50;;;;;;5093479;28;20023;-44
2024/01/11 08:58:44;;;;;;;21.02;13.88;;;12.60;75.40;;;;;;5094421;28;20024;-43
2024/01/11 09:01:10;;;;;;;22.00;13.77;;;12.70;75.50;;;;;;5094542;28;20453;-44
2024/01/11 09:03:35;;;;;;;21.17;13.63;;;12.70;75.40;;;;;;5094439;28;20045;-43
2024/01/11 09:06:03;;;;;;;20.17;13.20;;;12.70;75.40;;;;;;5094956;28;20019;-44
2024/01/11 09:08:29;;;;;;;21.25;13.40;;;12.80;75.50;;;;;;5094446;28;20032;-44
2024/01/11 09:10:55;;;;;;;22.25;13.93;;;12.80;75.40;;;;;;5094427;28;20022;-45
2024/01/11 09:13:21;;;;;;;19.15;12.88;;;12.90;75.50;;;;;;5095656;28;20024;-44
2024/01/11 09:15:47;;;;;;;22.02;13.75;;;12.90;75.50;;;;;;5095200;28;20038;-43
2024/01/11 09:18:12;;;;;;;20.58;12.88;;;12.90;75.50;;;;;;5094016;28;20055;-44
2024/01/11 09:20:38;;;;;;;20.35;13.55;;;12.90;75.50;;;;;;5094203;28;20023;-44
2024/01/11 09:23:04;;;;;;;18.08;12.63;;;12.90;75.50;;;;;;5094153;28;20024;-44
2024/01/11 09:25:32;;;;;;;20.55;13.73;;;12.90;75.50;;;;;;5094730;28;20035;-44
2024/01/11 09:27:58;;;;;;;20.75;13.23;;;13.00;75.60;;;;;;5093892;28;20024;-44
2024/01/11 09:30:24;;;;;;;21.63;13.60;;;13.00;75.50;;;;;;5094098;28;20047;-44
2024/01/11 09:32:49;;;;;;;17.60;12.63;;;13.00;75.50;;;;;;5094124;28;20466;-45
2024/01/11 09:35:15;;;;;;;19.70;13.05;;;13.00;75.40;;;;;;5094237;28;20039;-44
2024/01/11 09:37:41;;;;;;;19.88;12.85;;;13.10;75.40;;;;;;5093686;28;20028;-44
2024/01/11 09:40:10;;;;;;;18.80;12.68;;;13.20;75.50;;;;;;5093869;28;20024;-43
2024/01/11 09:42:37;;;;;;;17.90;12.38;;;13.20;75.40;;;;;;5093866;28;20074;-45
2024/01/11 09:45:08;;;;;;;20.17;12.75;;;13.20;75.30;;;;;;5093713;28;20027;-44
2024/01/11 09:47:36;;;;;;;19.73;12.93;;;13.30;75.30;;;;;;5093646;28;20024;-44
2024/01/11 09:50:03;;;;;;;17.45;11.90;;;13.30;75.30;;;;;;5093776;28;20028;-44
2024/01/11 09:52:31;;;;;;;18.15;11.80;;;13.30;75.20;;;;;;5093619;28;20032;-44
2024/01/11 09:55:00;;;;;;;20.67;12.85;;;13.40;75.20;;;;;;5093642;28;20541;-43
2024/01/11 09:57:30;;;;;;;20.30;12.43;;;13.40;75.20;;;;;;5093556;28;20035;-44
2024/01/11 09:59:57;;;;;;;19.42;12.75;;;13.50;75.10;;;;;;5093519;28;20020;-44
2024/01/11 10:02:26;;;;;;;16.98;12.15;;;13.60;75.90;;;;;;5093748;28;20066;-44
2024/01/11 10:04:52;;;;;;;15.98;11.20;;;13.60;75.00;;;;;;5093353;28;20016;-44
2024/01/11 10:07:21;;;;;;;18.15;11.73;;;13.60;74.90;;;;;;5092575;28;20117;-44
2024/01/11 10:09:47;;;;;;;16.35;11.50;;;13.70;74.90;;;;;;5093265;28;20028;-44
2024/01/11 10:12:13;;;;;;;18.33;11.82;;;13.70;74.80;;;;;;5093419;28;20024;-44
2024/01/11 10:14:39;;;;;;;17.45;11.38;;;13.80;74.80;;;;;;5093257;28;20038;-44
2024/01/11 10:17:05;;;;;;;19.13;12.00;;;13.80;74.80;;;;;;5092967;28;20359;-44
2024/01/11 10:19:31;;;;;;;16.00;11.85;;;13.90;74.70;;;;;;5092983;28;20028;-44
2024/01/11 10:21:58;;;;;;;17.30;11.80;;;13.90;74.60;;;;;;5091026;28;20020;-43
2024/01/11 10:24:26;;;;;;;16.95;11.30;;;14.00;74.60;;;;;;5093209;28;20036;-44
2024/01/11 10:26:59;;;;;;;16.63;11.45;;;14.00;74.50;;;;;;5093556;28;20549;-44
2024/01/11 10:29:30;;;;;;;18.35;11.52;;;14.10;74.50;;;;;;5092916;28;20447;-44
2024/01/11 10:31:56;;;;;;;15.32;11.15;;;14.10;74.40;;;;;;5093162;28;20032;-43
2024/01/11 10:34:23;;;;;;;17.83;12.02;;;14.20;74.40;;;;;;5093197;28;20026;-44
2024/01/11 10:36:53;;;;;;;16.08;10.90;;;14.20;74.30;;;;;;5092498;28;20028;-44
2024/01/11 10:39:24;;;;;;;15.32;10.85;;;14.20;74.30;;;;;;5092693;28;20024;-43
2024/01/11 10:41:57;;;;;;;17.45;11.40;;;14.30;74.20;;;;;;5092867;28;20482;-45
2024/01/11 10:44:25;;;;;;;16.80;11.35;;;14.30;74.20;;;;;;5093126;28;20099;-43
2024/01/11 10:46:55;;;;;;;17.02;11.25;;;14.40;74.10;;;;;;5092981;28;20038;-44
2024/01/11 10:49:25;;;;;;;15.93;11.35;;;14.40;74.90;;;;;;5092314;28;20374;-43
2024/01/11 10:52:00;;;;;;;15.18;10.75;;;14.50;74.10;;;;;;5092892;28;20017;-44
2024/01/11 10:54:27;;;;;;;15.45;11.02;;;14.50;74.00;;;;;;5092386;28;20108;-44
2024/01/11 10:56:54;;;;;;;16.00;10.50;;;14.50;74.00;;;;;;5092310;28;20020;-44
2024/01/11 10:59:24;;;;;;;16.17;10.85;;;14.60;74.00;;;;;;5092595;28;20031;-44
2024/01/11 11:01:53;;;;;;;15.98;10.98;;;14.60;73.90;;;;;;5092159;28;20020;-44
2024/01/11 11:04:22;;;;;;;15.02;11.40;;;14.70;73.90;;;;;;5092441;28;20077;-44
2024/01/11 11:06:50;;;;;;;16.70;11.38;;;14.70;73.80;;;;;;5092101;28;20020;-43
2024/01/11 11:09:17;;;;;;;15.43;10.43;;;14.70;73.70;;;;;;5092046;28;20103;-44
2024/01/11 11:11:44;;;;;;;14.07;10.52;;;14.80;73.70;;;;;;5093558;28;20020;-44
2024/01/11 11:14:13;;;;;;;15.23;10.68;;;14.80;73.60;;;;;;5092730;28;20020;-44
2024/01/11 11:16:39;;;;;;;13.90;10.07;;;14.80;73.50;;;;;;5091957;28;20020;-44
2024/01/11 11:19:06;;;;;;;16.25;10.68;;;14.90;73.50;;;;;;5091663;28;20394;-44
2024/01/11 11:21:32;;;;;;;15.65;10.52;;;14.90;73.40;;;;;;5091958;28;20107;-45
2024/01/11 11:23:58;;;;;;;15.95;10.88;;;14.90;73.40;;;;;;5092013;28;20110;-45
2024/01/11 11:26:26;;;;;;;17.27;11.02;;;15.00;73.30;;;;;;5091880;28;20016;-45
2024/01/11 11:28:52;;;;;;;15.50;10.15;;;15.00;73.30;;;;;;5091551;28;20432;-45
2024/01/11 11:31:37;;;;;;;15.25;10.05;;;15.10;74.00;;;;;;5091889;28;20027;-44
2024/01/11 11:34:04;;;;;;;15.32;10.45;;;15.10;73.20;;;;;;5091928;28;20024;-45
2024/01/11 11:36:30;;;;;;;18.60;10.73;;;15.10;73.10;;;;;;5091219;28;20048;-44
2024/01/11 11:39:00;;;;;;;15.68;10.93;;;15.20;73.00;;;;;;5091905;28;20066;-43
2024/01/11 11:41:26;;;;;;;16.42;10.93;;;15.20;73.80;;;;;;5092059;28;20023;-44
2024/01/11 11:43:52;;;;;;;15.88;10.80;;;15.20;72.80;;;;;;5092368;28;20028;-45
2024/01/11 11:46:21;;;;;;;14.55;10.52;;;15.20;72.80;;;;;;5091529;28;20436;-43
2024/01/11 11:48:47;;;;;;;14.95;10.32;;;15.20;72.80;;;;;;5091425;28;20028;-44
2024/01/11 11:51:17;;;;;;;14.63;10.18;;;15.30;72.70;;;;;;5092917;28;20039;-44
2024/01/11 11:53:44;;;;;;;14.93;10.02;;;15.30;72.60;;;;;;5091352;28;20030;-44
2024/01/11 11:56:10;;;;;;;17.67;10.93;;;15.30;72.50;;;;;;5091287;28;20120;-44
2024/01/11 11:58:36;;;;;;;15.30;10.48;;;15.40;72.60;;;;;;5091263;28;20024;-45
2024/01/11 12:01:04;;;;;;;16.38;11.00;;;15.40;72.50;;;;;;5091479;28;20024;-43
2024/01/11 12:03:37;;;;;;;15.82;10.77;;;15.40;72.50;;;;;;5091373;28;20035;-45
2024/01/11 12:06:10;;;;;;;15.35;11.00;;;15.40;72.40;;;;;;5092405;28;20028;-44
2024/01/11 12:08:36;;;;;;;16.20;10.57;;;15.40;72.40;;;;;;5091168;28;20469;-43
2024/01/11 12:11:03;;;;;;;16.30;11.32;;;15.40;72.30;;;;;;5091808;28;20056;-44
2024/01/11 12:13:30;;;;;;;15.35;10.52;;;15.50;72.30;;;;;;5091826;28;20031;-44
2024/01/11 12:15:56;;;;;;;17.55;10.93;;;15.50;72.30;;;;;;5091190;28;20027;-44
2024/01/11 12:18:22;;;;;;;15.32;10.57;;;15.50;72.20;;;;;;5091180;28;20028;-44
2024/01/11 12:20:48;;;;;;;15.52;10.82;;;15.50;72.10;;;;;;5091785;28;20028;-44
2024/01/11 12:23:14;;;;;;;16.52;11.13;;;15.50;72.10;;;;;;5091113;28;20074;-42
2024/01/11 12:25:41;;;;;;;14.38;10.48;;;15.50;72.10;;;;;;5091605;28;20036;-44